createdAt,value
2019-03-17T00:04:31.519Z,12.43
2019-03-17T00:07:23.995Z,12.95
2019-03-17T00:10:14.152Z,10.57
2019-03-17T00:26:20.759Z,11.43
2019-03-17T00:29:23.639Z,14.53
2019-03-17T00:32:14.742Z,10.87
2019-03-17T00:45:25.166Z,14.50
2019-03-17T00:48:26.219Z,13.40
2019-03-17T00:51:16.321Z,11.47
2019-03-17T00:53:49.908Z,11.40
2019-03-17T00:56:35.576Z,16.47
2019-03-17T00:59:20.415Z,10.77
2019-03-17T01:02:06.182Z,14.40
2019-03-17T01:04:56.106Z,14.40
2019-03-17T01:07:40.424Z,12.10
2019-03-17T01:10:24.619Z,15.90
2019-03-17T01:13:10.928Z,15.47
2019-03-17T01:15:54.729Z,14.37
2019-03-17T01:18:40.501Z,11.87
2019-03-17T01:21:25.075Z,16.37
2019-03-17T01:24:12.756Z,12.80
2019-03-17T01:26:46.163Z,15.03
2019-03-17T01:29:30.317Z,14.03
2019-03-17T01:32:18.256Z,14.53
2019-03-17T01:35:09.823Z,16.77
2019-03-17T01:38:12.210Z,17.73
2019-03-17T01:40:57.728Z,13.90
2019-03-17T01:43:42.212Z,13.53
2019-03-17T01:46:25.906Z,15.27
2019-03-17T01:49:12.168Z,14.53
2019-03-17T01:51:56.031Z,18.10
2019-03-17T01:55:02.718Z,17.03
2019-03-17T01:57:44.686Z,16.10
2019-03-17T02:00:29.087Z,17.60
2019-03-17T02:03:15.374Z,14.00
2019-03-17T02:05:59.550Z,14.67
2019-03-17T02:08:31.912Z,14.17
2019-03-17T02:11:16.552Z,14.10
2019-03-17T02:14:02.748Z,13.67
2019-03-17T02:16:53.073Z,13.10
2019-03-17T02:19:38.006Z,15.50
2019-03-17T02:25:35.695Z,14.05
2019-03-17T02:31:22.886Z,13.03
2019-03-17T02:34:11.491Z,13.83
2019-03-17T02:36:41.808Z,15.03
2019-03-17T02:42:28.303Z,11.75
2019-03-17T02:45:12.871Z,13.47
2019-03-17T02:47:57.352Z,13.00
2019-03-17T02:50:41.648Z,12.73
2019-03-17T02:53:28.690Z,14.70
2019-03-17T02:56:31.113Z,13.43
2019-03-17T02:59:15.830Z,17.17
2019-03-17T03:02:00.146Z,13.77
2019-03-17T03:04:33.847Z,14.38
2019-03-17T03:07:26.151Z,15.20
2019-03-17T03:13:50.167Z,13.03
2019-03-17T03:16:30.989Z,15.87
2019-03-17T03:19:15.531Z,12.93
2019-03-17T03:22:01.521Z,14.33
2019-03-17T03:24:46.331Z,13.13
2019-03-17T03:30:45.533Z,16.50
2019-03-17T03:33:35.964Z,14.63
2019-03-17T03:39:25.321Z,15.87
2019-03-17T03:42:16.260Z,21.40
2019-03-17T03:45:01.030Z,15.77
2019-03-17T03:47:51.107Z,14.57
2019-03-17T03:50:36.154Z,12.47
2019-03-17T03:53:20.740Z,13.18
2019-03-17T03:56:10.704Z,16.10
2019-03-17T03:58:54.627Z,17.07
2019-03-17T04:01:38.328Z,13.77
2019-03-17T04:04:22.529Z,15.87
2019-03-17T04:07:07.083Z,17.93
2019-03-17T04:13:09.127Z,12.37
2019-03-17T04:18:47.686Z,11.53
2019-03-17T04:21:35.794Z,13.07
2019-03-17T04:24:24.152Z,14.97
2019-03-17T04:27:08.342Z,12.53
2019-03-17T04:42:32.444Z,10.50
2019-03-17T04:48:31.583Z,10.40
2019-03-17T04:51:16.902Z,10.97
2019-03-17T04:54:07.183Z,10.57
2019-03-17T05:03:37.770Z,13.37
2019-03-17T05:12:47.674Z,9.93
2019-03-17T05:24:27.526Z,10.37
2019-03-17T05:27:17.289Z,9.03
2019-03-17T05:33:08.268Z,11.17
2019-03-17T05:39:06.277Z,8.77
2019-03-17T05:41:39.941Z,7.10
2019-03-17T05:50:49.831Z,11.88
2019-03-17T05:53:57.888Z,8.50
2019-03-17T05:56:42.767Z,10.63
2019-03-17T05:59:28.895Z,10.17
2019-03-17T06:05:23.878Z,13.87
2019-03-17T06:08:12.805Z,11.17
2019-03-17T06:14:05.212Z,3.13
2019-03-17T06:17:03.867Z,3.23
2019-03-17T06:22:58.764Z,2.87
2019-03-17T06:25:47.241Z,4.83
2019-03-17T06:28:35.138Z,6.67
2019-03-17T06:32:01.082Z,3.53
2019-03-17T06:34:35.094Z,5.00
2019-03-17T06:43:39.785Z,4.47
2019-03-17T06:49:23.337Z,4.87
2019-03-17T07:01:41.354Z,5.20
2019-03-17T07:04:25.599Z,5.40
2019-03-17T07:07:12.056Z,3.67
2019-03-17T07:12:59.813Z,8.97
2019-03-17T07:15:44.316Z,4.37
2019-03-17T07:18:28.266Z,4.87
2019-03-17T07:21:11.893Z,2.73
2019-03-17T07:23:56.412Z,5.95
2019-03-17T07:26:44.740Z,5.43
2019-03-17T07:32:27.988Z,4.27
2019-03-17T07:35:11.567Z,3.90
2019-03-17T07:37:56.959Z,5.70
2019-03-17T07:40:41.636Z,3.20
2019-03-17T07:55:53.776Z,6.12
2019-03-17T08:05:03.565Z,6.57
2019-03-17T08:20:39.079Z,3.73
2019-03-17T08:42:24.735Z,8.45
2019-03-17T09:03:58.887Z,10.15
2019-03-17T09:13:09.134Z,9.57
2019-03-17T09:25:51.473Z,7.40
2019-03-17T09:28:35.470Z,9.60
2019-03-17T09:31:19.085Z,5.80
2019-03-17T09:34:09.467Z,11.83
2019-03-17T09:36:57.116Z,8.30
2019-03-17T09:42:51.047Z,10.13
2019-03-17T09:45:41.327Z,8.27
2019-03-17T09:48:24.799Z,7.27
2019-03-17T09:57:34.538Z,11.27
2019-03-17T10:03:34.083Z,13.25
2019-03-17T10:09:35.644Z,8.43
2019-03-17T10:15:37.277Z,6.43
2019-03-17T10:18:15.657Z,14.07
2019-03-17T10:24:09.684Z,4.03
2019-03-17T10:26:54.694Z,6.93
2019-03-17T10:29:39.380Z,8.53
2019-03-17T10:32:23.443Z,9.17
2019-03-17T10:38:20.121Z,8.03
2019-03-17T10:44:15.307Z,5.60
2019-03-17T10:47:00.038Z,7.70
2019-03-17T10:49:32.937Z,5.70
2019-03-17T10:52:05.878Z,6.90
2019-03-17T10:58:07.550Z,7.07
2019-03-17T11:04:09.314Z,11.63
2019-03-17T11:06:42.097Z,6.72
2019-03-17T11:15:38.361Z,6.60
2019-03-17T11:18:28.990Z,6.43
2019-03-17T11:21:13.492Z,4.37
2019-03-17T11:23:58.149Z,4.83
2019-03-17T11:26:48.267Z,5.93
2019-03-17T11:29:39.244Z,8.73
2019-03-17T11:35:34.712Z,4.37
2019-03-17T11:47:52.508Z,8.08
2019-03-17T11:57:03.779Z,7.55
2019-03-17T12:03:10.790Z,6.53
2019-03-17T12:06:01.561Z,8.20
2019-03-17T12:08:47.629Z,7.30
2019-03-17T12:11:32.262Z,6.53
2019-03-17T12:20:32.233Z,4.27
2019-03-17T12:23:22.406Z,3.93
2019-03-17T12:26:12.857Z,3.57
2019-03-17T12:35:16.142Z,4.95
2019-03-17T12:38:04.640Z,6.37
2019-03-17T12:40:58.050Z,5.90
2019-03-17T12:43:30.688Z,5.20
2019-03-17T12:46:03.632Z,9.37
2019-03-17T12:48:48.174Z,7.07
2019-03-17T12:58:08.541Z,4.35
2019-03-17T13:00:53.075Z,4.63
2019-03-17T13:03:25.209Z,5.03
2019-03-17T13:06:15.563Z,4.33
2019-03-17T13:09:10.002Z,2.37
2019-03-17T13:11:44.142Z,3.75
2019-03-17T13:17:29.220Z,2.17
2019-03-17T13:20:15.924Z,5.17
2019-03-17T13:23:00.838Z,4.23
2019-03-17T13:28:56.245Z,6.93
2019-03-17T13:34:51.799Z,4.97
2019-03-17T13:37:42.093Z,3.67
2019-03-17T13:40:29.830Z,4.43
2019-03-17T13:46:24.963Z,4.80
2019-03-17T13:52:26.057Z,3.70
2019-03-17T13:55:16.482Z,5.40
2019-03-17T13:57:50.981Z,4.73
2019-03-17T14:00:36.805Z,3.03
2019-03-17T14:09:47.355Z,5.43
2019-03-17T14:18:53.401Z,5.23
2019-03-17T14:21:26.502Z,8.23
2019-03-17T14:24:14.919Z,4.50
2019-03-17T14:27:01.312Z,5.57
2019-03-17T14:33:00.385Z,8.03
2019-03-17T14:35:45.997Z,5.90
2019-03-17T14:55:11.203Z,6.43
2019-03-17T15:01:10.914Z,6.23
2019-03-17T15:13:11.481Z,5.45
2019-03-17T15:16:02.956Z,5.78
2019-03-17T15:22:11.578Z,5.17
2019-03-17T15:25:00.474Z,5.67
2019-03-17T15:31:11.075Z,8.93
2019-03-17T15:33:57.655Z,7.03
2019-03-17T15:36:50.202Z,8.68
2019-03-17T15:39:39.560Z,6.67
2019-03-17T15:51:45.581Z,6.80
2019-03-17T16:00:53.605Z,4.23
2019-03-17T16:03:38.015Z,7.47
2019-03-17T16:06:26.431Z,7.63
2019-03-17T16:09:17.111Z,5.63
2019-03-17T16:24:55.263Z,6.58
2019-03-17T16:34:08.153Z,7.00
2019-03-17T16:36:41.205Z,6.47
2019-03-17T16:39:26.374Z,8.00
2019-03-17T16:42:13.761Z,7.83
2019-03-17T16:44:57.698Z,9.23
2019-03-17T16:47:43.954Z,5.43
2019-03-17T16:50:34.147Z,5.77
2019-03-17T16:53:20.056Z,4.87
2019-03-17T16:56:03.586Z,5.50
2019-03-17T16:58:51.797Z,5.30
2019-03-17T17:04:52.905Z,7.33
2019-03-17T17:07:42.946Z,7.00
2019-03-17T17:10:33.380Z,8.50
2019-03-17T17:13:24.740Z,5.93
2019-03-17T17:16:13.414Z,7.77
2019-03-17T17:19:01.973Z,8.60
2019-03-17T17:21:51.749Z,5.90
2019-03-17T17:24:36.087Z,6.70
2019-03-17T17:27:20.735Z,10.57
2019-03-17T17:30:05.244Z,5.33
2019-03-17T17:32:49.760Z,5.67
2019-03-17T17:35:34.064Z,5.00
2019-03-17T17:38:20.686Z,6.80
2019-03-17T17:41:06.418Z,5.40
2019-03-17T17:43:52.124Z,10.93
2019-03-17T17:46:37.458Z,5.60
2019-03-17T17:49:21.642Z,11.07
2019-03-17T17:52:06.417Z,8.03
2019-03-17T17:54:52.589Z,10.43
2019-03-17T17:57:37.048Z,8.00
2019-03-17T18:00:22.386Z,6.90
2019-03-17T18:03:06.594Z,5.00
2019-03-17T18:05:51.582Z,6.37
2019-03-17T18:08:36.980Z,8.73
2019-03-17T18:11:21.585Z,9.80
2019-03-17T18:14:06.272Z,5.97
2019-03-17T18:16:50.762Z,6.87
2019-03-17T18:19:35.287Z,8.33
2019-03-17T18:22:19.251Z,4.47
2019-03-17T18:25:03.215Z,3.42
2019-03-17T18:27:48.402Z,5.37
2019-03-17T18:30:35.688Z,8.50
2019-03-17T18:33:20.348Z,8.07
2019-03-17T18:36:05.654Z,5.08
2019-03-17T18:38:50.650Z,6.10
2019-03-17T18:41:36.924Z,9.80
2019-03-17T18:44:21.712Z,7.50
2019-03-17T18:47:06.699Z,5.67
2019-03-17T18:49:51.222Z,4.70
2019-03-17T18:55:39.078Z,5.90
2019-03-17T18:58:23.496Z,8.07
2019-03-17T19:01:08.613Z,5.87
2019-03-17T19:03:53.562Z,7.73
2019-03-17T19:06:38.353Z,10.57
2019-03-17T19:09:22.389Z,11.13
2019-03-17T19:12:06.482Z,8.30
2019-03-17T19:14:50.252Z,8.53
2019-03-17T19:17:34.491Z,6.43
2019-03-17T19:20:18.792Z,9.23
2019-03-17T19:23:03.232Z,5.17
2019-03-17T19:25:47.576Z,9.67
2019-03-17T19:28:32.227Z,10.17
2019-03-17T19:31:17.213Z,4.97
2019-03-17T19:34:02.091Z,8.97
2019-03-17T19:36:46.135Z,7.37
2019-03-17T19:39:30.949Z,9.93
2019-03-17T19:42:16.997Z,8.27
2019-03-17T19:45:01.320Z,7.67
2019-03-17T19:47:46.823Z,5.35
2019-03-17T19:50:32.547Z,6.80
2019-03-17T19:53:18.580Z,6.93
2019-03-17T19:56:03.797Z,4.50
2019-03-17T19:58:49.909Z,6.50
2019-03-17T20:01:34.536Z,9.23
2019-03-17T20:04:30.060Z,7.40
2019-03-17T20:07:04.677Z,8.13
2019-03-17T20:09:48.811Z,6.40
2019-03-17T20:12:32.820Z,5.97
2019-03-17T20:15:17.709Z,7.95
2019-03-17T20:18:01.894Z,7.42
2019-03-17T20:20:46.333Z,6.20
2019-03-17T20:23:30.415Z,9.83
2019-03-17T20:26:14.523Z,7.27
2019-03-17T20:28:59.235Z,7.80
2019-03-17T20:31:43.676Z,9.37
2019-03-17T20:34:28.040Z,9.27
2019-03-17T20:37:12.829Z,6.40
2019-03-17T20:39:56.903Z,9.93
2019-03-17T20:42:43.022Z,5.40
2019-03-17T20:45:27.316Z,5.90
2019-03-17T20:48:11.643Z,9.05
2019-03-17T20:50:55.826Z,5.30
2019-03-17T20:53:27.945Z,10.40
2019-03-17T20:56:11.602Z,12.10
2019-03-17T20:58:55.626Z,10.33
2019-03-17T21:01:40.131Z,11.77
2019-03-17T21:04:24.879Z,9.17
2019-03-17T21:07:10.163Z,8.80
2019-03-17T21:09:53.878Z,10.37
2019-03-17T21:12:39.615Z,7.60
2019-03-17T21:15:23.453Z,6.43
2019-03-17T21:18:08.020Z,6.83
2019-03-17T21:20:53.007Z,10.10
2019-03-17T21:23:38.789Z,7.45
2019-03-17T21:26:23.164Z,7.93
2019-03-17T21:29:07.355Z,9.40
2019-03-17T21:31:40.397Z,13.03
2019-03-17T21:34:25.234Z,13.37
2019-03-17T21:37:09.921Z,11.12
2019-03-17T21:39:54.593Z,7.07
2019-03-17T21:42:38.642Z,10.27
2019-03-17T21:45:23.058Z,8.97
2019-03-17T21:48:08.184Z,8.97
2019-03-17T21:50:53.613Z,10.03
2019-03-17T21:53:38.989Z,6.87
2019-03-17T21:56:23.594Z,11.80
2019-03-17T21:59:09.506Z,11.20
2019-03-17T22:01:53.164Z,9.70
2019-03-17T22:04:38.610Z,5.87
2019-03-17T22:07:23.378Z,11.67
2019-03-17T22:10:08.564Z,9.83
2019-03-17T22:12:52.936Z,11.38
2019-03-17T22:15:37.056Z,7.40
2019-03-17T22:18:21.319Z,10.40
2019-03-17T22:20:53.841Z,6.00
2019-03-17T22:23:38.654Z,10.60
2019-03-17T22:26:22.759Z,12.10
2019-03-17T22:29:06.329Z,7.80
2019-03-17T22:31:51.331Z,8.07
2019-03-17T22:34:37.291Z,8.53
2019-03-17T22:37:21.570Z,13.77
2019-03-17T22:40:06.074Z,10.33
2019-03-17T22:42:50.777Z,7.47
2019-03-17T22:45:34.955Z,9.20
2019-03-17T22:48:18.591Z,7.13
2019-03-17T22:51:03.522Z,7.80
2019-03-17T22:53:47.381Z,11.27
2019-03-17T22:56:31.173Z,11.25
2019-03-17T22:59:15.868Z,7.40
2019-03-17T23:02:00.050Z,7.27
2019-03-17T23:04:44.930Z,10.33
2019-03-17T23:07:17.405Z,5.60
2019-03-17T23:10:14.752Z,6.70
2019-03-17T23:12:58.405Z,10.32
2019-03-17T23:15:43.080Z,6.97
2019-03-17T23:18:28.119Z,5.60
2019-03-17T23:21:12.255Z,8.03
2019-03-17T23:23:55.748Z,10.47
2019-03-17T23:26:39.599Z,7.10
2019-03-17T23:29:24.837Z,7.20
2019-03-17T23:32:08.915Z,11.13
2019-03-17T23:34:53.795Z,8.27
2019-03-17T23:37:38.199Z,10.40
2019-03-17T23:40:22.955Z,7.57
2019-03-17T23:43:06.887Z,7.13
2019-03-17T23:45:51.302Z,4.87
2019-03-17T23:48:35.344Z,8.23
2019-03-17T23:51:19.375Z,9.30
2019-03-17T23:54:03.746Z,8.13
2019-03-17T23:56:47.847Z,9.97
2019-03-17T23:59:31.627Z,7.00
